sensor_id;sensor_type;location;lat;lon;timestamp;temperature;humidity
18446;DHT22;9352;50.888;4.466;2023-09-07T00:01:17;20.10;99.90
18446;DHT22;9352;50.888;4.466;2023-09-07T00:03:45;20.00;99.90
18446;DHT22;9352;50.888;4.466;2023-09-07T00:06:12;20.00;99.90
18446;DHT22;9352;50.888;4.466;2023-09-07T00:08:39;19.90;99.90
18446;DHT22;9352;50.888;4.466;2023-09-07T00:11:06;19.90;99.90
18446;DHT22;9352;50.888;4.466;2023-09-07T00:13:33;19.90;99.90
18446;DHT22;9352;50.888;4.466;2023-09-07T00:16:01;19.90;99.90
18446;DHT22;9352;50.888;4.466;2023-09-07T00:18:28;19.80;99.90
18446;DHT22;9352;50.888;4.466;2023-09-07T00:20:56;19.80;99.90
18446;DHT22;9352;50.888;4.466;2023-09-07T00:23:23;19.70;99.90
18446;DHT22;9352;50.888;4.466;2023-09-07T00:25:50;19.70;99.90
18446;DHT22;9352;50.888;4.466;2023-09-07T00:28:17;19.70;99.90
18446;DHT22;9352;50.888;4.466;2023-09-07T00:30:44;19.60;99.90
18446;DHT22;9352;50.888;4.466;2023-09-07T00:33:11;19.60;99.90
18446;DHT22;9352;50.888;4.466;2023-09-07T00:35:38;19.60;99.90
18446;DHT22;9352;50.888;4.466;2023-09-07T00:38:06;19.60;99.90
18446;DHT22;9352;50.888;4.466;2023-09-07T00:40:33;19.50;99.90
18446;DHT22;9352;50.888;4.466;2023-09-07T00:43:01;19.50;99.90
18446;DHT22;9352;50.888;4.466;2023-09-07T00:45:30;19.40;99.90
18446;DHT22;9352;50.888;4.466;2023-09-07T00:47:57;19.40;99.90
18446;DHT22;9352;50.888;4.466;2023-09-07T00:50:24;19.40;99.90
18446;DHT22;9352;50.888;4.466;2023-09-07T00:52:51;19.30;99.90
18446;DHT22;9352;50.888;4.466;2023-09-07T00:55:20;19.30;99.90
18446;DHT22;9352;50.888;4.466;2023-09-07T00:57:47;19.30;99.90
18446;DHT22;9352;50.888;4.466;2023-09-07T01:00:14;19.20;99.90
18446;DHT22;9352;50.888;4.466;2023-09-07T01:02:41;19.20;99.90
18446;DHT22;9352;50.888;4.466;2023-09-07T01:05:10;19.20;99.90
18446;DHT22;9352;50.888;4.466;2023-09-07T01:07:42;19.20;99.90
18446;DHT22;9352;50.888;4.466;2023-09-07T01:10:10;19.10;99.90
18446;DHT22;9352;50.888;4.466;2023-09-07T01:12:39;19.10;99.90
18446;DHT22;9352;50.888;4.466;2023-09-07T01:15:07;19.10;99.90
18446;DHT22;9352;50.888;4.466;2023-09-07T01:17:36;19.00;99.90
18446;DHT22;9352;50.888;4.466;2023-09-07T01:20:05;19.00;99.90
18446;DHT22;9352;50.888;4.466;2023-09-07T01:22:36;19.00;99.90
18446;DHT22;9352;50.888;4.466;2023-09-07T01:25:05;18.90;99.90
18446;DHT22;9352;50.888;4.466;2023-09-07T01:27:33;18.90;99.90
18446;DHT22;9352;50.888;4.466;2023-09-07T01:30:00;18.90;99.90
18446;DHT22;9352;50.888;4.466;2023-09-07T01:32:28;18.90;99.90
18446;DHT22;9352;50.888;4.466;2023-09-07T01:34:57;18.90;99.90
18446;DHT22;9352;50.888;4.466;2023-09-07T01:37:24;18.90;99.90
18446;DHT22;9352;50.888;4.466;2023-09-07T01:39:52;18.80;99.90
18446;DHT22;9352;50.888;4.466;2023-09-07T01:42:19;18.80;99.90
18446;DHT22;9352;50.888;4.466;2023-09-07T01:44:47;18.80;99.90
18446;DHT22;9352;50.888;4.466;2023-09-07T01:47:14;18.80;99.90
18446;DHT22;9352;50.888;4.466;2023-09-07T01:49:41;18.80;99.90
18446;DHT22;9352;50.888;4.466;2023-09-07T01:52:08;18.80;99.90
18446;DHT22;9352;50.888;4.466;2023-09-07T01:54:35;18.70;99.90
18446;DHT22;9352;50.888;4.466;2023-09-07T01:57:03;18.70;99.90
18446;DHT22;9352;50.888;4.466;2023-09-07T01:59:30;18.70;99.90
18446;DHT22;9352;50.888;4.466;2023-09-07T02:01:57;18.70;99.90
18446;DHT22;9352;50.888;4.466;2023-09-07T02:04:24;18.70;99.90
18446;DHT22;9352;50.888;4.466;2023-09-07T02:06:51;18.70;99.90
18446;DHT22;9352;50.888;4.466;2023-09-07T02:09:17;18.70;99.90
18446;DHT22;9352;50.888;4.466;2023-09-07T02:11:44;18.60;99.90
18446;DHT22;9352;50.888;4.466;2023-09-07T02:14:12;18.60;99.90
18446;DHT22;9352;50.888;4.466;2023-09-07T02:16:39;18.60;99.90
18446;DHT22;9352;50.888;4.466;2023-09-07T02:19:07;18.60;99.90
18446;DHT22;9352;50.888;4.466;2023-09-07T02:21:34;18.60;99.90
18446;DHT22;9352;50.888;4.466;2023-09-07T02:24:01;18.50;99.90
18446;DHT22;9352;50.888;4.466;2023-09-07T02:26:28;18.50;99.90
18446;DHT22;9352;50.888;4.466;2023-09-07T02:28:55;18.50;99.90
18446;DHT22;9352;50.888;4.466;2023-09-07T02:31:23;18.50;99.90
18446;DHT22;9352;50.888;4.466;2023-09-07T02:33:50;18.40;99.90
18446;DHT22;9352;50.888;4.466;2023-09-07T02:36:17;18.40;99.90
18446;DHT22;9352;50.888;4.466;2023-09-07T02:38:44;18.40;99.90
18446;DHT22;9352;50.888;4.466;2023-09-07T02:41:11;18.40;99.90
18446;DHT22;9352;50.888;4.466;2023-09-07T02:43:38;18.40;99.90
18446;DHT22;9352;50.888;4.466;2023-09-07T02:46:05;18.40;99.90
18446;DHT22;9352;50.888;4.466;2023-09-07T02:48:33;18.30;99.90
18446;DHT22;9352;50.888;4.466;2023-09-07T02:51:00;18.30;99.90
18446;DHT22;9352;50.888;4.466;2023-09-07T02:53:26;18.30;99.90
18446;DHT22;9352;50.888;4.466;2023-09-07T02:55:53;18.30;99.90
18446;DHT22;9352;50.888;4.466;2023-09-07T02:58:21;18.20;99.90
18446;DHT22;9352;50.888;4.466;2023-09-07T03:00:48;18.20;99.90
18446;DHT22;9352;50.888;4.466;2023-09-07T03:03:15;18.20;99.90
18446;DHT22;9352;50.888;4.466;2023-09-07T03:05:44;18.20;99.90
18446;DHT22;9352;50.888;4.466;2023-09-07T03:08:11;18.20;99.90
18446;DHT22;9352;50.888;4.466;2023-09-07T03:10:39;18.10;99.90
18446;DHT22;9352;50.888;4.466;2023-09-07T03:13:06;18.10;99.90
18446;DHT22;9352;50.888;4.466;2023-09-07T03:15:33;18.10;99.90
18446;DHT22;9352;50.888;4.466;2023-09-07T03:18:00;18.00;99.90
18446;DHT22;9352;50.888;4.466;2023-09-07T03:20:27;18.00;99.90
18446;DHT22;9352;50.888;4.466;2023-09-07T03:22:55;18.00;99.90
18446;DHT22;9352;50.888;4.466;2023-09-07T03:25:23;18.00;99.90
18446;DHT22;9352;50.888;4.466;2023-09-07T03:27:50;18.00;99.90
18446;DHT22;9352;50.888;4.466;2023-09-07T03:30:17;18.00;99.90
18446;DHT22;9352;50.888;4.466;2023-09-07T03:32:44;18.00;99.90
18446;DHT22;9352;50.888;4.466;2023-09-07T03:35:12;18.00;99.90
18446;DHT22;9352;50.888;4.466;2023-09-07T03:37:38;18.00;99.90
18446;DHT22;9352;50.888;4.466;2023-09-07T03:40:08;18.00;99.90
18446;DHT22;9352;50.888;4.466;2023-09-07T03:42:35;18.10;99.90
18446;DHT22;9352;50.888;4.466;2023-09-07T03:45:03;18.00;99.90
18446;DHT22;9352;50.888;4.466;2023-09-07T03:47:30;18.00;99.90
18446;DHT22;9352;50.888;4.466;2023-09-07T03:49:57;18.00;99.90
18446;DHT22;9352;50.888;4.466;2023-09-07T03:52:24;18.00;99.90
18446;DHT22;9352;50.888;4.466;2023-09-07T03:54:53;18.00;99.90
18446;DHT22;9352;50.888;4.466;2023-09-07T03:57:22;17.90;99.90
18446;DHT22;9352;50.888;4.466;2023-09-07T03:59:49;17.90;99.90
18446;DHT22;9352;50.888;4.466;2023-09-07T04:02:16;17.90;99.90
18446;DHT22;9352;50.888;4.466;2023-09-07T04:04:48;17.90;99.90
18446;DHT22;9352;50.888;4.466;2023-09-07T04:07:15;17.90;99.90
18446;DHT22;9352;50.888;4.466;2023-09-07T04:09:42;17.80;99.90
18446;DHT22;9352;50.888;4.466;2023-09-07T04:12:10;17.80;99.90
18446;DHT22;9352;50.888;4.466;2023-09-07T04:14:38;17.70;99.90
18446;DHT22;9352;50.888;4.466;2023-09-07T04:17:06;17.70;99.90
18446;DHT22;9352;50.888;4.466;2023-09-07T04:19:33;17.70;99.90
18446;DHT22;9352;50.888;4.466;2023-09-07T04:22:00;17.70;99.90
18446;DHT22;9352;50.888;4.466;2023-09-07T04:24:27;17.60;99.90
18446;DHT22;9352;50.888;4.466;2023-09-07T04:26:58;17.60;99.90
18446;DHT22;9352;50.888;4.466;2023-09-07T04:29:25;17.60;99.90
18446;DHT22;9352;50.888;4.466;2023-09-07T04:31:53;17.60;99.90
18446;DHT22;9352;50.888;4.466;2023-09-07T04:34:21;17.50;99.90
18446;DHT22;9352;50.888;4.466;2023-09-07T04:36:49;17.50;99.90
18446;DHT22;9352;50.888;4.466;2023-09-07T04:39:16;17.50;99.90
18446;DHT22;9352;50.888;4.466;2023-09-07T04:41:43;17.50;99.90
18446;DHT22;9352;50.888;4.466;2023-09-07T04:44:10;17.50;99.90
18446;DHT22;9352;50.888;4.466;2023-09-07T04:46:37;17.50;99.90
18446;DHT22;9352;50.888;4.466;2023-09-07T04:49:06;17.40;99.90
18446;DHT22;9352;50.888;4.466;2023-09-07T04:51:33;17.40;99.90
18446;DHT22;9352;50.888;4.466;2023-09-07T04:54:00;17.40;99.90
18446;DHT22;9352;50.888;4.466;2023-09-07T04:56:27;17.40;99.90
18446;DHT22;9352;50.888;4.466;2023-09-07T04:58:54;17.30;99.90
18446;DHT22;9352;50.888;4.466;2023-09-07T05:01:21;17.40;99.90
18446;DHT22;9352;50.888;4.466;2023-09-07T05:03:48;17.40;99.90
18446;DHT22;9352;50.888;4.466;2023-09-07T05:06:17;17.40;99.90
18446;DHT22;9352;50.888;4.466;2023-09-07T05:08:44;17.30;99.90
18446;DHT22;9352;50.888;4.466;2023-09-07T05:11:11;17.30;99.90
18446;DHT22;9352;50.888;4.466;2023-09-07T05:13:38;17.40;99.90
18446;DHT22;9352;50.888;4.466;2023-09-07T05:16:05;17.30;99.90
18446;DHT22;9352;50.888;4.466;2023-09-07T05:18:32;17.30;99.90
18446;DHT22;9352;50.888;4.466;2023-09-07T05:20:59;17.40;99.90
18446;DHT22;9352;50.888;4.466;2023-09-07T05:23:27;17.40;99.90
18446;DHT22;9352;50.888;4.466;2023-09-07T05:25:54;17.60;99.90
18446;DHT22;9352;50.888;4.466;2023-09-07T05:28:22;17.60;99.90
18446;DHT22;9352;50.888;4.466;2023-09-07T05:30:49;17.60;99.90
18446;DHT22;9352;50.888;4.466;2023-09-07T05:33:17;17.60;99.90
18446;DHT22;9352;50.888;4.466;2023-09-07T05:35:44;17.60;99.90
18446;DHT22;9352;50.888;4.466;2023-09-07T05:38:12;17.50;99.90
18446;DHT22;9352;50.888;4.466;2023-09-07T05:40:42;17.60;99.90
18446;DHT22;9352;50.888;4.466;2023-09-07T05:43:09;17.60;99.90
18446;DHT22;9352;50.888;4.466;2023-09-07T05:45:39;17.60;99.90
18446;DHT22;9352;50.888;4.466;2023-09-07T05:48:07;17.60;99.90
18446;DHT22;9352;50.888;4.466;2023-09-07T05:50:35;17.70;99.90
18446;DHT22;9352;50.888;4.466;2023-09-07T05:53:02;17.70;99.90
18446;DHT22;9352;50.888;4.466;2023-09-07T05:55:29;17.70;99.90
18446;DHT22;9352;50.888;4.466;2023-09-07T05:57:58;17.80;99.90
18446;DHT22;9352;50.888;4.466;2023-09-07T06:00:25;17.80;99.90
18446;DHT22;9352;50.888;4.466;2023-09-07T06:02:52;17.90;99.90
18446;DHT22;9352;50.888;4.466;2023-09-07T06:05:19;17.90;99.90
18446;DHT22;9352;50.888;4.466;2023-09-07T06:07:46;18.00;99.90
18446;DHT22;9352;50.888;4.466;2023-09-07T06:10:13;18.00;99.90
18446;DHT22;9352;50.888;4.466;2023-09-07T06:12:41;18.10;99.90
18446;DHT22;9352;50.888;4.466;2023-09-07T06:15:09;18.10;99.90
18446;DHT22;9352;50.888;4.466;2023-09-07T06:17:37;18.20;99.90
18446;DHT22;9352;50.888;4.466;2023-09-07T06:20:05;18.30;99.90
18446;DHT22;9352;50.888;4.466;2023-09-07T06:22:32;18.30;99.90
18446;DHT22;9352;50.888;4.466;2023-09-07T06:24:59;18.40;99.90
18446;DHT22;9352;50.888;4.466;2023-09-07T06:27:26;18.50;99.90
18446;DHT22;9352;50.888;4.466;2023-09-07T06:29:53;18.50;99.90
18446;DHT22;9352;50.888;4.466;2023-09-07T06:32:21;18.60;99.90
18446;DHT22;9352;50.888;4.466;2023-09-07T06:34:48;18.70;99.90
18446;DHT22;9352;50.888;4.466;2023-09-07T06:37:15;18.80;99.90
18446;DHT22;9352;50.888;4.466;2023-09-07T06:39:42;18.90;99.90
18446;DHT22;9352;50.888;4.466;2023-09-07T06:42:09;19.00;99.90
18446;DHT22;9352;50.888;4.466;2023-09-07T06:44:36;19.10;99.90
18446;DHT22;9352;50.888;4.466;2023-09-07T06:47:03;19.10;99.90
18446;DHT22;9352;50.888;4.466;2023-09-07T06:49:31;19.20;99.90
18446;DHT22;9352;50.888;4.466;2023-09-07T06:51:58;19.30;99.90
18446;DHT22;9352;50.888;4.466;2023-09-07T06:54:27;19.50;99.90
18446;DHT22;9352;50.888;4.466;2023-09-07T06:56:54;19.60;99.90
18446;DHT22;9352;50.888;4.466;2023-09-07T06:59:21;19.70;99.90
18446;DHT22;9352;50.888;4.466;2023-09-07T07:01:48;19.90;99.90
18446;DHT22;9352;50.888;4.466;2023-09-07T07:04:15;20.00;99.90
18446;DHT22;9352;50.888;4.466;2023-09-07T07:06:43;20.00;99.90
18446;DHT22;9352;50.888;4.466;2023-09-07T07:09:10;20.20;99.90
18446;DHT22;9352;50.888;4.466;2023-09-07T07:11:37;20.30;99.90
18446;DHT22;9352;50.888;4.466;2023-09-07T07:14:04;20.40;99.90
18446;DHT22;9352;50.888;4.466;2023-09-07T07:16:31;20.60;99.90
18446;DHT22;9352;50.888;4.466;2023-09-07T07:18:58;20.70;99.90
18446;DHT22;9352;50.888;4.466;2023-09-07T07:21:25;20.80;99.90
18446;DHT22;9352;50.888;4.466;2023-09-07T07:23:53;20.90;99.90
18446;DHT22;9352;50.888;4.466;2023-09-07T07:26:20;21.00;99.90
18446;DHT22;9352;50.888;4.466;2023-09-07T07:28:47;21.10;99.90
18446;DHT22;9352;50.888;4.466;2023-09-07T07:31:14;21.20;99.90
18446;DHT22;9352;50.888;4.466;2023-09-07T07:33:41;21.20;99.90
18446;DHT22;9352;50.888;4.466;2023-09-07T07:36:07;21.30;99.90
18446;DHT22;9352;50.888;4.466;2023-09-07T07:38:34;21.50;99.90
18446;DHT22;9352;50.888;4.466;2023-09-07T07:41:03;21.60;99.90
18446;DHT22;9352;50.888;4.466;2023-09-07T07:43:32;21.60;99.90
18446;DHT22;9352;50.888;4.466;2023-09-07T07:45:58;21.70;99.90
18446;DHT22;9352;50.888;4.466;2023-09-07T07:48:25;21.80;99.90
18446;DHT22;9352;50.888;4.466;2023-09-07T07:50:54;21.90;99.90
18446;DHT22;9352;50.888;4.466;2023-09-07T07:53:21;22.00;99.90
18446;DHT22;9352;50.888;4.466;2023-09-07T07:55:48;22.10;99.90
18446;DHT22;9352;50.888;4.466;2023-09-07T07:58:16;22.20;99.90
18446;DHT22;9352;50.888;4.466;2023-09-07T08:00:43;22.20;99.90
18446;DHT22;9352;50.888;4.466;2023-09-07T08:03:13;22.30;99.90
18446;DHT22;9352;50.888;4.466;2023-09-07T08:05:40;22.40;99.90
18446;DHT22;9352;50.888;4.466;2023-09-07T08:08:07;22.50;99.90
18446;DHT22;9352;50.888;4.466;2023-09-07T08:10:34;22.60;99.90
18446;DHT22;9352;50.888;4.466;2023-09-07T08:13:02;22.70;99.90
18446;DHT22;9352;50.888;4.466;2023-09-07T08:15:32;22.80;99.90
18446;DHT22;9352;50.888;4.466;2023-09-07T08:17:59;22.90;99.90
18446;DHT22;9352;50.888;4.466;2023-09-07T08:20:26;22.90;99.90
18446;DHT22;9352;50.888;4.466;2023-09-07T08:22:53;23.00;99.90
18446;DHT22;9352;50.888;4.466;2023-09-07T08:25:20;23.10;99.90
18446;DHT22;9352;50.888;4.466;2023-09-07T08:27:47;23.20;99.90
18446;DHT22;9352;50.888;4.466;2023-09-07T08:30:17;23.40;99.90
18446;DHT22;9352;50.888;4.466;2023-09-07T08:32:45;23.50;99.90
18446;DHT22;9352;50.888;4.466;2023-09-07T08:35:13;23.60;99.90
18446;DHT22;9352;50.888;4.466;2023-09-07T08:37:40;23.70;99.90
18446;DHT22;9352;50.888;4.466;2023-09-07T08:40:08;23.80;99.90
18446;DHT22;9352;50.888;4.466;2023-09-07T08:42:37;23.90;99.90
18446;DHT22;9352;50.888;4.466;2023-09-07T08:45:05;24.00;99.90
18446;DHT22;9352;50.888;4.466;2023-09-07T08:47:35;24.10;99.90
18446;DHT22;9352;50.888;4.466;2023-09-07T08:50:05;24.20;99.90
18446;DHT22;9352;50.888;4.466;2023-09-07T08:52:33;24.30;99.90
18446;DHT22;9352;50.888;4.466;2023-09-07T08:55:01;24.40;99.90
18446;DHT22;9352;50.888;4.466;2023-09-07T08:57:30;24.50;99.90
18446;DHT22;9352;50.888;4.466;2023-09-07T08:59:57;24.50;99.90
18446;DHT22;9352;50.888;4.466;2023-09-07T09:02:24;24.50;99.90
18446;DHT22;9352;50.888;4.466;2023-09-07T09:04:51;24.60;99.90
18446;DHT22;9352;50.888;4.466;2023-09-07T09:07:20;24.70;99.90
18446;DHT22;9352;50.888;4.466;2023-09-07T09:09:47;25.20;99.90
18446;DHT22;9352;50.888;4.466;2023-09-07T09:12:15;25.80;99.90
18446;DHT22;9352;50.888;4.466;2023-09-07T09:14:42;26.50;99.90
18446;DHT22;9352;50.888;4.466;2023-09-07T09:17:14;27.20;99.90
18446;DHT22;9352;50.888;4.466;2023-09-07T09:19:41;27.80;99.90
18446;DHT22;9352;50.888;4.466;2023-09-07T09:22:09;28.50;99.90
18446;DHT22;9352;50.888;4.466;2023-09-07T09:24:38;29.10;99.90
18446;DHT22;9352;50.888;4.466;2023-09-07T09:27:05;29.60;99.90
18446;DHT22;9352;50.888;4.466;2023-09-07T09:29:32;30.10;99.90
18446;DHT22;9352;50.888;4.466;2023-09-07T09:32:00;30.50;99.90
18446;DHT22;9352;50.888;4.466;2023-09-07T09:34:32;30.90;99.90
18446;DHT22;9352;50.888;4.466;2023-09-07T09:37:00;31.00;99.90
18446;DHT22;9352;50.888;4.466;2023-09-07T09:39:27;31.40;99.90
18446;DHT22;9352;50.888;4.466;2023-09-07T09:41:56;31.60;99.90
18446;DHT22;9352;50.888;4.466;2023-09-07T09:44:24;31.90;99.90
18446;DHT22;9352;50.888;4.466;2023-09-07T09:46:52;32.00;99.90
18446;DHT22;9352;50.888;4.466;2023-09-07T09:49:21;32.20;99.90
18446;DHT22;9352;50.888;4.466;2023-09-07T09:51:49;32.40;99.90
18446;DHT22;9352;50.888;4.466;2023-09-07T09:54:17;32.70;99.90
18446;DHT22;9352;50.888;4.466;2023-09-07T09:56:44;33.00;99.90
18446;DHT22;9352;50.888;4.466;2023-09-07T09:59:14;33.10;99.90
18446;DHT22;9352;50.888;4.466;2023-09-07T10:01:44;33.00;99.90
18446;DHT22;9352;50.888;4.466;2023-09-07T10:04:13;33.20;99.90
18446;DHT22;9352;50.888;4.466;2023-09-07T10:06:53;33.30;99.90
18446;DHT22;9352;50.888;4.466;2023-09-07T10:09:20;33.30;99.90
18446;DHT22;9352;50.888;4.466;2023-09-07T10:11:52;33.50;99.90
18446;DHT22;9352;50.888;4.466;2023-09-07T10:14:21;33.60;99.90
18446;DHT22;9352;50.888;4.466;2023-09-07T10:16:49;33.70;99.90
18446;DHT22;9352;50.888;4.466;2023-09-07T10:19:20;33.80;99.90
18446;DHT22;9352;50.888;4.466;2023-09-07T10:21:47;34.10;99.90
18446;DHT22;9352;50.888;4.466;2023-09-07T10:24:25;34.10;99.90
18446;DHT22;9352;50.888;4.466;2023-09-07T10:26:57;34.30;99.90
18446;DHT22;9352;50.888;4.466;2023-09-07T10:29:25;34.40;99.20
18446;DHT22;9352;50.888;4.466;2023-09-07T10:31:53;34.30;98.50
18446;DHT22;9352;50.888;4.466;2023-09-07T10:34:20;34.30;98.20
18446;DHT22;9352;50.888;4.466;2023-09-07T10:36:48;34.60;98.30
18446;DHT22;9352;50.888;4.466;2023-09-07T10:39:18;34.60;97.40
18446;DHT22;9352;50.888;4.466;2023-09-07T10:41:45;34.70;97.50
18446;DHT22;9352;50.888;4.466;2023-09-07T10:44:13;34.90;97.20
18446;DHT22;9352;50.888;4.466;2023-09-07T10:46:41;35.10;96.80
18446;DHT22;9352;50.888;4.466;2023-09-07T10:49:11;35.20;95.80
18446;DHT22;9352;50.888;4.466;2023-09-07T10:51:41;35.30;95.80
18446;DHT22;9352;50.888;4.466;2023-09-07T10:54:23;35.50;95.40
18446;DHT22;9352;50.888;4.466;2023-09-07T10:56:50;35.80;95.10
18446;DHT22;9352;50.888;4.466;2023-09-07T10:59:17;35.90;94.40
18446;DHT22;9352;50.888;4.466;2023-09-07T11:01:46;36.10;93.80
18446;DHT22;9352;50.888;4.466;2023-09-07T11:04:14;36.40;93.00
18446;DHT22;9352;50.888;4.466;2023-09-07T11:06:43;36.60;92.40
18446;DHT22;9352;50.888;4.466;2023-09-07T11:09:10;36.70;92.40
18446;DHT22;9352;50.888;4.466;2023-09-07T11:11:37;36.90;92.10
18446;DHT22;9352;50.888;4.466;2023-09-07T11:14:04;36.80;91.70
18446;DHT22;9352;50.888;4.466;2023-09-07T11:16:33;36.70;91.40
18446;DHT22;9352;50.888;4.466;2023-09-07T11:19:04;36.90;90.90
18446;DHT22;9352;50.888;4.466;2023-09-07T11:21:31;37.00;90.50
18446;DHT22;9352;50.888;4.466;2023-09-07T11:24:00;37.00;89.60
18446;DHT22;9352;50.888;4.466;2023-09-07T11:26:40;37.00;88.60
18446;DHT22;9352;50.888;4.466;2023-09-07T11:29:07;37.20;89.00
18446;DHT22;9352;50.888;4.466;2023-09-07T11:31:33;37.30;88.30
18446;DHT22;9352;50.888;4.466;2023-09-07T11:34:00;37.50;88.70
18446;DHT22;9352;50.888;4.466;2023-09-07T11:36:29;37.70;85.20
18446;DHT22;9352;50.888;4.466;2023-09-07T11:38:56;37.70;85.10
18446;DHT22;9352;50.888;4.466;2023-09-07T11:41:23;37.80;83.70
18446;DHT22;9352;50.888;4.466;2023-09-07T11:43:50;38.00;82.00
18446;DHT22;9352;50.888;4.466;2023-09-07T11:46:16;38.10;82.30
18446;DHT22;9352;50.888;4.466;2023-09-07T11:48:43;38.40;80.80
18446;DHT22;9352;50.888;4.466;2023-09-07T11:51:10;38.60;80.50
18446;DHT22;9352;50.888;4.466;2023-09-07T11:53:38;38.50;80.10
18446;DHT22;9352;50.888;4.466;2023-09-07T11:56:05;38.60;78.70
18446;DHT22;9352;50.888;4.466;2023-09-07T11:58:32;38.50;79.20
18446;DHT22;9352;50.888;4.466;2023-09-07T12:00:59;38.70;78.20
18446;DHT22;9352;50.888;4.466;2023-09-07T12:03:26;38.70;77.20
18446;DHT22;9352;50.888;4.466;2023-09-07T12:05:55;38.60;77.50
18446;DHT22;9352;50.888;4.466;2023-09-07T12:08:22;38.70;76.00
18446;DHT22;9352;50.888;4.466;2023-09-07T12:10:51;38.70;76.30
18446;DHT22;9352;50.888;4.466;2023-09-07T12:13:18;38.90;75.90
18446;DHT22;9352;50.888;4.466;2023-09-07T12:15:44;39.00;76.10
18446;DHT22;9352;50.888;4.466;2023-09-07T12:18:11;39.00;75.60
18446;DHT22;9352;50.888;4.466;2023-09-07T12:20:38;39.30;75.40
18446;DHT22;9352;50.888;4.466;2023-09-07T12:23:05;39.30;75.60
18446;DHT22;9352;50.888;4.466;2023-09-07T12:25:32;39.80;72.60
18446;DHT22;9352;50.888;4.466;2023-09-07T12:28:00;40.20;73.10
18446;DHT22;9352;50.888;4.466;2023-09-07T12:30:27;40.20;71.20
18446;DHT22;9352;50.888;4.466;2023-09-07T12:32:54;40.60;70.90
18446;DHT22;9352;50.888;4.466;2023-09-07T12:35:21;40.60;70.20
18446;DHT22;9352;50.888;4.466;2023-09-07T12:37:48;40.80;68.50
18446;DHT22;9352;50.888;4.466;2023-09-07T12:40:15;40.80;68.70
18446;DHT22;9352;50.888;4.466;2023-09-07T12:42:43;40.60;68.90
18446;DHT22;9352;50.888;4.466;2023-09-07T12:45:12;40.70;68.40
18446;DHT22;9352;50.888;4.466;2023-09-07T12:47:40;40.90;67.60
18446;DHT22;9352;50.888;4.466;2023-09-07T12:50:07;41.40;67.60
18446;DHT22;9352;50.888;4.466;2023-09-07T12:52:34;41.30;67.10
18446;DHT22;9352;50.888;4.466;2023-09-07T12:55:03;41.60;65.60
18446;DHT22;9352;50.888;4.466;2023-09-07T12:57:30;42.10;65.70
18446;DHT22;9352;50.888;4.466;2023-09-07T12:59:57;42.30;65.80
18446;DHT22;9352;50.888;4.466;2023-09-07T13:02:26;42.30;64.20
18446;DHT22;9352;50.888;4.466;2023-09-07T13:04:54;42.50;64.20
18446;DHT22;9352;50.888;4.466;2023-09-07T13:07:21;42.70;63.10
18446;DHT22;9352;50.888;4.466;2023-09-07T13:09:48;43.10;62.60
18446;DHT22;9352;50.888;4.466;2023-09-07T13:12:15;43.40;63.90
18446;DHT22;9352;50.888;4.466;2023-09-07T13:14:42;43.40;61.50
18446;DHT22;9352;50.888;4.466;2023-09-07T13:17:12;44.00;61.50
18446;DHT22;9352;50.888;4.466;2023-09-07T13:19:41;44.00;60.20
18446;DHT22;9352;50.888;4.466;2023-09-07T13:22:09;44.30;59.20
18446;DHT22;9352;50.888;4.466;2023-09-07T13:24:35;44.60;58.50
18446;DHT22;9352;50.888;4.466;2023-09-07T13:27:03;44.50;59.00
18446;DHT22;9352;50.888;4.466;2023-09-07T13:29:30;44.50;58.10
18446;DHT22;9352;50.888;4.466;2023-09-07T13:31:57;44.60;58.70
18446;DHT22;9352;50.888;4.466;2023-09-07T13:34:25;45.30;58.50
18446;DHT22;9352;50.888;4.466;2023-09-07T13:36:53;45.30;57.00
18446;DHT22;9352;50.888;4.466;2023-09-07T13:39:20;44.90;57.80
18446;DHT22;9352;50.888;4.466;2023-09-07T13:41:47;45.60;56.50
18446;DHT22;9352;50.888;4.466;2023-09-07T13:44:15;46.00;56.20
18446;DHT22;9352;50.888;4.466;2023-09-07T13:46:43;45.90;56.30
18446;DHT22;9352;50.888;4.466;2023-09-07T13:49:10;45.90;56.30
18446;DHT22;9352;50.888;4.466;2023-09-07T13:51:37;45.70;56.10
18446;DHT22;9352;50.888;4.466;2023-09-07T13:54:07;45.70;56.50
18446;DHT22;9352;50.888;4.466;2023-09-07T13:56:34;45.70;56.20
18446;DHT22;9352;50.888;4.466;2023-09-07T13:59:01;46.00;56.60
18446;DHT22;9352;50.888;4.466;2023-09-07T14:01:28;46.20;55.80
18446;DHT22;9352;50.888;4.466;2023-09-07T14:03:55;46.20;55.30
18446;DHT22;9352;50.888;4.466;2023-09-07T14:06:22;46.20;54.70
18446;DHT22;9352;50.888;4.466;2023-09-07T14:08:49;46.60;54.20
18446;DHT22;9352;50.888;4.466;2023-09-07T14:11:18;47.00;53.80
18446;DHT22;9352;50.888;4.466;2023-09-07T14:13:46;47.00;53.80
18446;DHT22;9352;50.888;4.466;2023-09-07T14:16:15;47.00;53.80
18446;DHT22;9352;50.888;4.466;2023-09-07T14:18:42;47.00;52.90
18446;DHT22;9352;50.888;4.466;2023-09-07T14:21:09;47.00;52.70
18446;DHT22;9352;50.888;4.466;2023-09-07T14:23:36;47.20;52.30
18446;DHT22;9352;50.888;4.466;2023-09-07T14:26:03;46.80;53.10
18446;DHT22;9352;50.888;4.466;2023-09-07T14:28:31;47.00;52.20
18446;DHT22;9352;50.888;4.466;2023-09-07T14:30:59;47.20;51.90
18446;DHT22;9352;50.888;4.466;2023-09-07T14:33:28;47.00;52.40
18446;DHT22;9352;50.888;4.466;2023-09-07T14:35:56;46.90;52.90
18446;DHT22;9352;50.888;4.466;2023-09-07T14:38:22;47.30;52.50
18446;DHT22;9352;50.888;4.466;2023-09-07T14:40:52;47.00;52.10
18446;DHT22;9352;50.888;4.466;2023-09-07T14:43:20;46.70;52.30
18446;DHT22;9352;50.888;4.466;2023-09-07T14:45:49;47.00;52.40
18446;DHT22;9352;50.888;4.466;2023-09-07T14:48:15;47.20;52.60
18446;DHT22;9352;50.888;4.466;2023-09-07T14:50:42;47.20;51.70
18446;DHT22;9352;50.888;4.466;2023-09-07T14:53:09;47.50;51.70
18446;DHT22;9352;50.888;4.466;2023-09-07T14:55:36;47.90;51.00
18446;DHT22;9352;50.888;4.466;2023-09-07T14:58:03;48.50;50.30
18446;DHT22;9352;50.888;4.466;2023-09-07T15:00:32;48.50;50.30
18446;DHT22;9352;50.888;4.466;2023-09-07T15:03:01;48.60;50.00
18446;DHT22;9352;50.888;4.466;2023-09-07T15:05:28;48.60;49.50
18446;DHT22;9352;50.888;4.466;2023-09-07T15:07:55;48.60;49.30
18446;DHT22;9352;50.888;4.466;2023-09-07T15:10:22;48.10;48.70
18446;DHT22;9352;50.888;4.466;2023-09-07T15:12:51;48.80;49.40
18446;DHT22;9352;50.888;4.466;2023-09-07T15:15:18;49.30;49.10
18446;DHT22;9352;50.888;4.466;2023-09-07T15:17:47;49.20;48.10
18446;DHT22;9352;50.888;4.466;2023-09-07T15:20:15;49.60;48.20
18446;DHT22;9352;50.888;4.466;2023-09-07T15:22:42;49.30;47.60
18446;DHT22;9352;50.888;4.466;2023-09-07T15:25:09;49.40;48.10
18446;DHT22;9352;50.888;4.466;2023-09-07T15:27:36;49.40;47.70
18446;DHT22;9352;50.888;4.466;2023-09-07T15:30:04;49.10;48.20
18446;DHT22;9352;50.888;4.466;2023-09-07T15:32:31;48.20;48.80
18446;DHT22;9352;50.888;4.466;2023-09-07T15:34:58;46.40;49.70
18446;DHT22;9352;50.888;4.466;2023-09-07T15:37:27;45.80;51.10
18446;DHT22;9352;50.888;4.466;2023-09-07T15:39:54;46.40;51.20
18446;DHT22;9352;50.888;4.466;2023-09-07T15:42:21;45.70;51.00
18446;DHT22;9352;50.888;4.466;2023-09-07T15:44:48;43.40;53.40
18446;DHT22;9352;50.888;4.466;2023-09-07T15:47:15;40.70;55.70